sensor_id;sensor_type;location;lat;lon;timestamp;P1;durP1;ratioP1;P2;durP2;ratioP2
70126;SDS011;57491;42.694;23.314;2022-09-09T00:02:24;15.32;;;11.70;;
70126;SDS011;57491;42.694;23.314;2022-09-09T00:04:57;15.95;;;11.65;;
70126;SDS011;57491;42.694;23.314;2022-09-09T00:07:33;15.73;;;11.20;;
70126;SDS011;57491;42.694;23.314;2022-09-09T00:10:13;13.30;;;11.00;;
70126;SDS011;57491;42.694;23.314;2022-09-09T00:15:20;14.45;;;10.98;;
70126;SDS011;57491;42.694;23.314;2022-09-09T00:17:53;15.95;;;12.50;;
70126;SDS011;57491;42.694;23.314;2022-09-09T00:20:28;16.50;;;11.60;;
70126;SDS011;57491;42.694;23.314;2022-09-09T00:23:00;16.65;;;11.73;;
70126;SDS011;57491;42.694;23.314;2022-09-09T00:25:40;15.07;;;11.43;;
70126;SDS011;57491;42.694;23.314;2022-09-09T00:28:17;13.32;;;11.93;;
70126;SDS011;57491;42.694;23.314;2022-09-09T00:30:45;14.23;;;11.90;;
70126;SDS011;57491;42.694;23.314;2022-09-09T00:33:14;17.20;;;11.75;;
70126;SDS011;57491;42.694;23.314;2022-09-09T00:35:46;14.98;;;11.85;;
70126;SDS011;57491;42.694;23.314;2022-09-09T00:38:16;16.27;;;12.05;;
70126;SDS011;57491;42.694;23.314;2022-09-09T00:40:51;15.63;;;11.20;;
70126;SDS011;57491;42.694;23.314;2022-09-09T00:43:25;12.48;;;10.93;;
70126;SDS011;57491;42.694;23.314;2022-09-09T00:46:07;14.27;;;11.98;;
70126;SDS011;57491;42.694;23.314;2022-09-09T00:48:46;18.30;;;12.07;;
70126;SDS011;57491;42.694;23.314;2022-09-09T00:51:25;20.17;;;12.38;;
70126;SDS011;57491;42.694;23.314;2022-09-09T00:56:35;15.27;;;12.07;;
70126;SDS011;57491;42.694;23.314;2022-09-09T00:59:12;15.73;;;11.45;;
70126;SDS011;57491;42.694;23.314;2022-09-09T01:01:48;15.77;;;12.48;;
70126;SDS011;57491;42.694;23.314;2022-09-09T01:04:16;14.15;;;12.20;;
70126;SDS011;57491;42.694;23.314;2022-09-09T01:06:53;13.18;;;11.40;;
70126;SDS011;57491;42.694;23.314;2022-09-09T01:09:29;14.38;;;10.52;;
70126;SDS011;57491;42.694;23.314;2022-09-09T01:12:07;14.45;;;11.70;;
70126;SDS011;57491;42.694;23.314;2022-09-09T01:14:40;16.67;;;11.57;;
70126;SDS011;57491;42.694;23.314;2022-09-09T01:17:11;16.65;;;12.75;;
70126;SDS011;57491;42.694;23.314;2022-09-09T01:19:47;21.88;;;13.35;;
70126;SDS011;57491;42.694;23.314;2022-09-09T01:22:26;20.38;;;12.38;;
70126;SDS011;57491;42.694;23.314;2022-09-09T01:25:11;15.65;;;11.27;;
70126;SDS011;57491;42.694;23.314;2022-09-09T01:27:48;16.42;;;12.75;;
70126;SDS011;57491;42.694;23.314;2022-09-09T01:30:17;13.82;;;11.32;;
70126;SDS011;57491;42.694;23.314;2022-09-09T01:32:46;14.80;;;12.02;;
70126;SDS011;57491;42.694;23.314;2022-09-09T01:35:19;14.60;;;11.45;;
70126;SDS011;57491;42.694;23.314;2022-09-09T01:37:56;13.95;;;12.02;;
70126;SDS011;57491;42.694;23.314;2022-09-09T01:40:23;12.13;;;10.73;;
70126;SDS011;57491;42.694;23.314;2022-09-09T01:42:53;14.77;;;11.75;;
70126;SDS011;57491;42.694;23.314;2022-09-09T01:45:21;13.10;;;11.05;;
70126;SDS011;57491;42.694;23.314;2022-09-09T01:47:50;15.38;;;11.05;;
70126;SDS011;57491;42.694;23.314;2022-09-09T01:50:18;16.23;;;11.90;;
70126;SDS011;57491;42.694;23.314;2022-09-09T01:52:48;13.73;;;11.18;;
70126;SDS011;57491;42.694;23.314;2022-09-09T01:55:22;13.77;;;11.38;;
70126;SDS011;57491;42.694;23.314;2022-09-09T01:57:59;14.73;;;10.68;;
70126;SDS011;57491;42.694;23.314;2022-09-09T02:00:41;16.58;;;11.85;;
70126;SDS011;57491;42.694;23.314;2022-09-09T02:03:15;14.57;;;11.43;;
70126;SDS011;57491;42.694;23.314;2022-09-09T02:05:52;14.07;;;11.40;;
70126;SDS011;57491;42.694;23.314;2022-09-09T02:08:29;19.30;;;12.32;;
70126;SDS011;57491;42.694;23.314;2022-09-09T02:11:07;14.77;;;11.75;;
70126;SDS011;57491;42.694;23.314;2022-09-09T02:13:40;13.90;;;11.10;;
70126;SDS011;57491;42.694;23.314;2022-09-09T02:16:10;20.95;;;13.40;;
70126;SDS011;57491;42.694;23.314;2022-09-09T02:18:43;13.00;;;11.60;;
70126;SDS011;57491;42.694;23.314;2022-09-09T02:21:14;13.63;;;11.93;;
70126;SDS011;57491;42.694;23.314;2022-09-09T02:23:43;14.48;;;12.23;;
70126;SDS011;57491;42.694;23.314;2022-09-09T02:26:13;16.83;;;12.20;;
70126;SDS011;57491;42.694;23.314;2022-09-09T02:28:48;14.02;;;11.55;;
70126;SDS011;57491;42.694;23.314;2022-09-09T02:31:18;15.15;;;12.10;;
70126;SDS011;57491;42.694;23.314;2022-09-09T02:33:50;18.40;;;12.15;;
70126;SDS011;57491;42.694;23.314;2022-09-09T02:36:20;20.10;;;13.73;;
70126;SDS011;57491;42.694;23.314;2022-09-09T02:38:50;17.65;;;12.32;;
70126;SDS011;57491;42.694;23.314;2022-09-09T02:41:19;14.63;;;12.35;;
70126;SDS011;57491;42.694;23.314;2022-09-09T02:43:51;17.83;;;12.50;;
70126;SDS011;57491;42.694;23.314;2022-09-09T02:46:23;19.20;;;13.32;;
70126;SDS011;57491;42.694;23.314;2022-09-09T02:48:59;17.33;;;13.15;;
70126;SDS011;57491;42.694;23.314;2022-09-09T02:51:32;17.02;;;13.60;;
70126;SDS011;57491;42.694;23.314;2022-09-09T02:54:09;16.95;;;13.07;;
70126;SDS011;57491;42.694;23.314;2022-09-09T02:56:45;14.98;;;12.77;;
70126;SDS011;57491;42.694;23.314;2022-09-09T02:59:17;16.30;;;13.30;;
70126;SDS011;57491;42.694;23.314;2022-09-09T03:01:45;15.25;;;12.90;;
70126;SDS011;57491;42.694;23.314;2022-09-09T03:04:12;15.38;;;13.18;;
70126;SDS011;57491;42.694;23.314;2022-09-09T03:06:39;15.30;;;12.85;;
70126;SDS011;57491;42.694;23.314;2022-09-09T03:09:08;17.45;;;12.07;;
70126;SDS011;57491;42.694;23.314;2022-09-09T03:11:35;16.38;;;12.13;;
70126;SDS011;57491;42.694;23.314;2022-09-09T03:16:32;15.93;;;12.75;;
70126;SDS011;57491;42.694;23.314;2022-09-09T03:18:59;18.50;;;13.35;;
70126;SDS011;57491;42.694;23.314;2022-09-09T03:21:27;18.70;;;13.07;;
70126;SDS011;57491;42.694;23.314;2022-09-09T03:23:54;14.33;;;12.23;;
70126;SDS011;57491;42.694;23.314;2022-09-09T03:26:21;15.82;;;12.45;;
70126;SDS011;57491;42.694;23.314;2022-09-09T03:28:48;17.33;;;13.27;;
70126;SDS011;57491;42.694;23.314;2022-09-09T03:31:17;16.15;;;13.38;;
70126;SDS011;57491;42.694;23.314;2022-09-09T03:33:46;14.75;;;13.10;;
70126;SDS011;57491;42.694;23.314;2022-09-09T03:36:13;15.85;;;13.10;;
70126;SDS011;57491;42.694;23.314;2022-09-09T03:38:41;23.10;;;14.70;;
70126;SDS011;57491;42.694;23.314;2022-09-09T03:41:08;18.13;;;13.52;;
70126;SDS011;57491;42.694;23.314;2022-09-09T03:43:35;17.63;;;13.07;;
70126;SDS011;57491;42.694;23.314;2022-09-09T03:48:30;15.88;;;12.60;;
70126;SDS011;57491;42.694;23.314;2022-09-09T03:50:58;16.30;;;13.40;;
70126;SDS011;57491;42.694;23.314;2022-09-09T03:53:26;16.75;;;12.95;;
70126;SDS011;57491;42.694;23.314;2022-09-09T03:55:55;20.45;;;13.75;;
70126;SDS011;57491;42.694;23.314;2022-09-09T03:58:25;20.33;;;13.48;;
70126;SDS011;57491;42.694;23.314;2022-09-09T04:00:53;18.20;;;13.50;;
70126;SDS011;57491;42.694;23.314;2022-09-09T04:03:21;25.58;;;14.30;;
70126;SDS011;57491;42.694;23.314;2022-09-09T04:05:50;21.75;;;12.88;;
70126;SDS011;57491;42.694;23.314;2022-09-09T04:08:19;15.57;;;12.40;;
70126;SDS011;57491;42.694;23.314;2022-09-09T04:10:47;17.13;;;13.25;;
70126;SDS011;57491;42.694;23.314;2022-09-09T04:13:15;20.85;;;14.07;;
70126;SDS011;57491;42.694;23.314;2022-09-09T04:15:43;17.02;;;13.73;;
70126;SDS011;57491;42.694;23.314;2022-09-09T04:18:11;18.67;;;13.45;;
70126;SDS011;57491;42.694;23.314;2022-09-09T04:20:38;20.77;;;14.33;;
70126;SDS011;57491;42.694;23.314;2022-09-09T04:23:05;16.33;;;14.00;;
70126;SDS011;57491;42.694;23.314;2022-09-09T04:25:34;15.38;;;12.95;;
70126;SDS011;57491;42.694;23.314;2022-09-09T04:28:01;16.80;;;14.30;;
70126;SDS011;57491;42.694;23.314;2022-09-09T04:32:56;20.40;;;13.05;;
70126;SDS011;57491;42.694;23.314;2022-09-09T04:35:23;24.33;;;14.13;;
70126;SDS011;57491;42.694;23.314;2022-09-09T04:37:50;17.63;;;13.73;;
70126;SDS011;57491;42.694;23.314;2022-09-09T04:40:17;18.70;;;14.32;;
70126;SDS011;57491;42.694;23.314;2022-09-09T04:42:46;22.20;;;13.93;;
70126;SDS011;57491;42.694;23.314;2022-09-09T04:45:13;21.13;;;14.50;;
70126;SDS011;57491;42.694;23.314;2022-09-09T04:47:40;19.10;;;14.73;;
70126;SDS011;57491;42.694;23.314;2022-09-09T04:50:08;20.02;;;14.40;;
70126;SDS011;57491;42.694;23.314;2022-09-09T04:52:35;22.30;;;15.18;;
70126;SDS011;57491;42.694;23.314;2022-09-09T04:55:03;20.27;;;14.50;;
70126;SDS011;57491;42.694;23.314;2022-09-09T05:00:00;18.77;;;13.90;;
70126;SDS011;57491;42.694;23.314;2022-09-09T05:02:27;18.50;;;13.88;;
70126;SDS011;57491;42.694;23.314;2022-09-09T05:04:55;21.05;;;13.45;;
70126;SDS011;57491;42.694;23.314;2022-09-09T05:09:51;16.88;;;12.98;;
70126;SDS011;57491;42.694;23.314;2022-09-09T05:12:19;14.98;;;12.95;;
70126;SDS011;57491;42.694;23.314;2022-09-09T05:14:46;18.50;;;13.95;;
70126;SDS011;57491;42.694;23.314;2022-09-09T05:17:14;17.58;;;12.25;;
70126;SDS011;57491;42.694;23.314;2022-09-09T05:19:41;16.77;;;12.93;;
70126;SDS011;57491;42.694;23.314;2022-09-09T05:22:09;14.52;;;12.63;;
70126;SDS011;57491;42.694;23.314;2022-09-09T05:27:04;18.35;;;14.18;;
70126;SDS011;57491;42.694;23.314;2022-09-09T05:29:31;18.45;;;15.13;;
70126;SDS011;57491;42.694;23.314;2022-09-09T05:31:59;20.80;;;14.57;;
70126;SDS011;57491;42.694;23.314;2022-09-09T05:34:28;18.85;;;14.85;;
70126;SDS011;57491;42.694;23.314;2022-09-09T05:36:55;17.60;;;14.95;;
70126;SDS011;57491;42.694;23.314;2022-09-09T05:39:22;16.95;;;14.35;;
70126;SDS011;57491;42.694;23.314;2022-09-09T05:41:49;15.93;;;14.23;;
70126;SDS011;57491;42.694;23.314;2022-09-09T05:44:16;20.77;;;14.32;;
70126;SDS011;57491;42.694;23.314;2022-09-09T05:46:44;16.10;;;13.57;;
70126;SDS011;57491;42.694;23.314;2022-09-09T05:49:11;16.60;;;14.40;;
70126;SDS011;57491;42.694;23.314;2022-09-09T05:51:42;15.73;;;14.07;;
70126;SDS011;57491;42.694;23.314;2022-09-09T05:54:09;16.40;;;14.65;;
70126;SDS011;57491;42.694;23.314;2022-09-09T05:56:38;19.65;;;13.25;;
70126;SDS011;57491;42.694;23.314;2022-09-09T05:59:06;27.63;;;14.63;;
70126;SDS011;57491;42.694;23.314;2022-09-09T06:01:33;33.67;;;14.23;;
70126;SDS011;57491;42.694;23.314;2022-09-09T06:04:05;23.15;;;15.00;;
70126;SDS011;57491;42.694;23.314;2022-09-09T06:06:34;18.77;;;14.45;;
70126;SDS011;57491;42.694;23.314;2022-09-09T06:09:05;17.67;;;13.70;;
70126;SDS011;57491;42.694;23.314;2022-09-09T06:11:35;19.77;;;14.35;;
70126;SDS011;57491;42.694;23.314;2022-09-09T06:14:03;19.50;;;14.73;;
70126;SDS011;57491;42.694;23.314;2022-09-09T06:16:31;17.38;;;13.38;;
70126;SDS011;57491;42.694;23.314;2022-09-09T06:18:59;17.30;;;14.55;;
70126;SDS011;57491;42.694;23.314;2022-09-09T06:21:26;29.27;;;15.88;;
70126;SDS011;57491;42.694;23.314;2022-09-09T06:23:55;17.65;;;13.68;;
70126;SDS011;57491;42.694;23.314;2022-09-09T06:26:25;23.00;;;14.65;;
70126;SDS011;57491;42.694;23.314;2022-09-09T06:28:54;18.92;;;14.98;;
70126;SDS011;57491;42.694;23.314;2022-09-09T06:31:24;23.40;;;14.05;;
70126;SDS011;57491;42.694;23.314;2022-09-09T06:33:55;19.42;;;14.43;;
70126;SDS011;57491;42.694;23.314;2022-09-09T06:36:24;15.80;;;12.00;;
70126;SDS011;57491;42.694;23.314;2022-09-09T06:38:53;15.63;;;12.55;;
70126;SDS011;57491;42.694;23.314;2022-09-09T06:41:21;18.27;;;11.27;;
70126;SDS011;57491;42.694;23.314;2022-09-09T06:43:52;18.40;;;11.40;;
70126;SDS011;57491;42.694;23.314;2022-09-09T06:46:21;16.55;;;11.15;;
70126;SDS011;57491;42.694;23.314;2022-09-09T06:48:52;13.82;;;10.02;;
70126;SDS011;57491;42.694;23.314;2022-09-09T06:51:24;12.63;;;10.00;;
70126;SDS011;57491;42.694;23.314;2022-09-09T06:53:53;11.40;;;9.43;;
70126;SDS011;57491;42.694;23.314;2022-09-09T06:56:22;14.10;;;10.27;;
70126;SDS011;57491;42.694;23.314;2022-09-09T06:58:51;12.65;;;9.68;;
70126;SDS011;57491;42.694;23.314;2022-09-09T07:01:22;10.90;;;9.18;;
70126;SDS011;57491;42.694;23.314;2022-09-09T07:03:51;12.90;;;9.20;;
70126;SDS011;57491;42.694;23.314;2022-09-09T07:06:20;12.50;;;8.90;;
70126;SDS011;57491;42.694;23.314;2022-09-09T07:08:49;14.52;;;9.25;;
70126;SDS011;57491;42.694;23.314;2022-09-09T07:11:18;10.93;;;8.40;;
70126;SDS011;57491;42.694;23.314;2022-09-09T07:13:46;12.73;;;9.02;;
70126;SDS011;57491;42.694;23.314;2022-09-09T07:16:16;14.07;;;9.45;;
70126;SDS011;57491;42.694;23.314;2022-09-09T07:18:46;13.30;;;8.77;;
70126;SDS011;57491;42.694;23.314;2022-09-09T07:21:16;16.83;;;8.10;;
70126;SDS011;57491;42.694;23.314;2022-09-09T07:23:44;14.80;;;8.73;;
70126;SDS011;57491;42.694;23.314;2022-09-09T07:26:12;10.13;;;8.10;;
70126;SDS011;57491;42.694;23.314;2022-09-09T07:28:41;9.75;;;7.88;;
70126;SDS011;57491;42.694;23.314;2022-09-09T07:31:12;12.35;;;8.55;;
70126;SDS011;57491;42.694;23.314;2022-09-09T07:33:43;12.60;;;7.70;;
70126;SDS011;57491;42.694;23.314;2022-09-09T07:36:14;15.13;;;8.57;;
70126;SDS011;57491;42.694;23.314;2022-09-09T07:38:43;10.98;;;7.85;;
70126;SDS011;57491;42.694;23.314;2022-09-09T07:41:12;8.02;;;7.10;;
70126;SDS011;57491;42.694;23.314;2022-09-09T07:43:45;9.35;;;7.40;;
70126;SDS011;57491;42.694;23.314;2022-09-09T07:46:13;10.82;;;6.95;;
70126;SDS011;57491;42.694;23.314;2022-09-09T07:48:44;13.85;;;7.30;;
70126;SDS011;57491;42.694;23.314;2022-09-09T07:51:14;11.20;;;7.28;;
70126;SDS011;57491;42.694;23.314;2022-09-09T07:53:43;11.20;;;7.63;;
70126;SDS011;57491;42.694;23.314;2022-09-09T07:56:11;10.45;;;7.45;;
70126;SDS011;57491;42.694;23.314;2022-09-09T07:58:41;11.65;;;8.02;;
70126;SDS011;57491;42.694;23.314;2022-09-09T08:01:09;10.25;;;7.93;;
70126;SDS011;57491;42.694;23.314;2022-09-09T08:03:38;11.45;;;7.55;;
70126;SDS011;57491;42.694;23.314;2022-09-09T08:06:07;9.20;;;7.03;;
70126;SDS011;57491;42.694;23.314;2022-09-09T08:08:35;8.48;;;7.55;;
70126;SDS011;57491;42.694;23.314;2022-09-09T08:11:05;9.32;;;7.35;;
70126;SDS011;57491;42.694;23.314;2022-09-09T08:13:34;13.77;;;11.80;;
70126;SDS011;57491;42.694;23.314;2022-09-09T08:16:06;10.10;;;7.13;;
70126;SDS011;57491;42.694;23.314;2022-09-09T08:18:34;10.05;;;8.18;;
70126;SDS011;57491;42.694;23.314;2022-09-09T08:21:10;9.65;;;7.68;;
70126;SDS011;57491;42.694;23.314;2022-09-09T08:23:39;16.75;;;7.38;;
70126;SDS011;57491;42.694;23.314;2022-09-09T08:26:09;10.60;;;7.47;;
70126;SDS011;57491;42.694;23.314;2022-09-09T08:28:38;19.58;;;8.57;;
70126;SDS011;57491;42.694;23.314;2022-09-09T08:31:07;8.68;;;7.15;;
70126;SDS011;57491;42.694;23.314;2022-09-09T08:33:35;10.00;;;7.47;;
70126;SDS011;57491;42.694;23.314;2022-09-09T08:36:04;8.75;;;7.40;;
70126;SDS011;57491;42.694;23.314;2022-09-09T08:38:33;14.45;;;7.45;;
70126;SDS011;57491;42.694;23.314;2022-09-09T08:41:04;8.55;;;7.75;;
70126;SDS011;57491;42.694;23.314;2022-09-09T08:43:40;15.65;;;8.43;;
70126;SDS011;57491;42.694;23.314;2022-09-09T08:46:10;10.98;;;7.50;;
70126;SDS011;57491;42.694;23.314;2022-09-09T08:48:47;9.07;;;7.47;;
70126;SDS011;57491;42.694;23.314;2022-09-09T08:51:22;13.85;;;8.73;;
70126;SDS011;57491;42.694;23.314;2022-09-09T08:53:53;11.30;;;7.50;;
70126;SDS011;57491;42.694;23.314;2022-09-09T08:56:24;11.52;;;8.35;;
70126;SDS011;57491;42.694;23.314;2022-09-09T08:58:53;11.75;;;8.13;;
70126;SDS011;57491;42.694;23.314;2022-09-09T09:01:30;8.77;;;7.60;;
70126;SDS011;57491;42.694;23.314;2022-09-09T09:04:21;8.68;;;7.07;;
70126;SDS011;57491;42.694;23.314;2022-09-09T09:07:02;10.52;;;7.10;;
70126;SDS011;57491;42.694;23.314;2022-09-09T09:09:41;11.55;;;7.15;;
70126;SDS011;57491;42.694;23.314;2022-09-09T09:12:19;12.57;;;8.02;;
70126;SDS011;57491;42.694;23.314;2022-09-09T09:14:49;8.65;;;7.32;;
70126;SDS011;57491;42.694;23.314;2022-09-09T09:17:17;10.85;;;7.43;;
70126;SDS011;57491;42.694;23.314;2022-09-09T09:19:46;8.88;;;7.85;;
70126;SDS011;57491;42.694;23.314;2022-09-09T09:22:16;9.88;;;7.45;;
70126;SDS011;57491;42.694;23.314;2022-09-09T09:24:51;8.63;;;7.75;;
70126;SDS011;57491;42.694;23.314;2022-09-09T09:27:21;12.73;;;7.97;;
70126;SDS011;57491;42.694;23.314;2022-09-09T09:29:58;8.68;;;7.60;;
70126;SDS011;57491;42.694;23.314;2022-09-09T09:32:28;12.68;;;7.13;;
70126;SDS011;57491;42.694;23.314;2022-09-09T09:35:00;8.25;;;7.43;;
70126;SDS011;57491;42.694;23.314;2022-09-09T09:37:36;9.63;;;7.47;;
70126;SDS011;57491;42.694;23.314;2022-09-09T09:40:11;14.05;;;7.95;;
70126;SDS011;57491;42.694;23.314;2022-09-09T09:42:47;10.25;;;8.05;;
70126;SDS011;57491;42.694;23.314;2022-09-09T09:45:27;11.73;;;7.67;;
70126;SDS011;57491;42.694;23.314;2022-09-09T09:48:00;11.95;;;8.30;;
70126;SDS011;57491;42.694;23.314;2022-09-09T09:50:29;11.07;;;8.30;;
70126;SDS011;57491;42.694;23.314;2022-09-09T09:52:58;11.05;;;8.85;;
70126;SDS011;57491;42.694;23.314;2022-09-09T09:55:29;12.15;;;8.05;;
70126;SDS011;57491;42.694;23.314;2022-09-09T09:58:01;9.98;;;8.88;;
70126;SDS011;57491;42.694;23.314;2022-09-09T10:00:29;11.27;;;8.52;;
70126;SDS011;57491;42.694;23.314;2022-09-09T10:05:26;15.75;;;8.63;;
70126;SDS011;57491;42.694;23.314;2022-09-09T10:08:02;17.15;;;11.35;;
70126;SDS011;57491;42.694;23.314;2022-09-09T10:10:38;10.98;;;9.77;;
70126;SDS011;57491;42.694;23.314;2022-09-09T10:13:18;11.18;;;8.20;;
70126;SDS011;57491;42.694;23.314;2022-09-09T10:15:52;13.63;;;9.02;;
70126;SDS011;57491;42.694;23.314;2022-09-09T10:18:38;15.20;;;10.07;;
70126;SDS011;57491;42.694;23.314;2022-09-09T10:21:20;10.88;;;8.35;;
70126;SDS011;57491;42.694;23.314;2022-09-09T10:24:02;10.00;;;8.13;;
70126;SDS011;57491;42.694;23.314;2022-09-09T10:26:43;12.18;;;8.20;;
70126;SDS011;57491;42.694;23.314;2022-09-09T10:29:30;9.52;;;8.23;;
70126;SDS011;57491;42.694;23.314;2022-09-09T10:32:24;13.63;;;8.70;;
70126;SDS011;57491;42.694;23.314;2022-09-09T10:35:09;10.43;;;8.43;;
70126;SDS011;57491;42.694;23.314;2022-09-09T10:38:10;15.93;;;10.38;;
70126;SDS011;57491;42.694;23.314;2022-09-09T10:40:43;10.27;;;8.43;;
70126;SDS011;57491;42.694;23.314;2022-09-09T10:46:49;14.93;;;9.23;;
70126;SDS011;57491;42.694;23.314;2022-09-09T10:49:34;10.38;;;9.18;;
70126;SDS011;57491;42.694;23.314;2022-09-09T10:52:17;14.55;;;9.40;;
70126;SDS011;57491;42.694;23.314;2022-09-09T10:54:55;12.68;;;9.20;;
70126;SDS011;57491;42.694;23.314;2022-09-09T10:57:28;15.40;;;9.68;;
70126;SDS011;57491;42.694;23.314;2022-09-09T11:00:04;15.55;;;10.05;;
70126;SDS011;57491;42.694;23.314;2022-09-09T11:02:34;19.77;;;9.52;;
70126;SDS011;57491;42.694;23.314;2022-09-09T11:05:03;18.98;;;11.68;;
70126;SDS011;57491;42.694;23.314;2022-09-09T11:07:37;18.83;;;10.15;;
70126;SDS011;57491;42.694;23.314;2022-09-09T11:10:14;20.67;;;10.40;;
70126;SDS011;57491;42.694;23.314;2022-09-09T11:12:45;17.95;;;10.35;;
70126;SDS011;57491;42.694;23.314;2022-09-09T11:15:20;18.13;;;11.20;;
70126;SDS011;57491;42.694;23.314;2022-09-09T11:17:52;17.35;;;11.18;;
70126;SDS011;57491;42.694;23.314;2022-09-09T11:20:23;13.40;;;8.38;;
70126;SDS011;57491;42.694;23.314;2022-09-09T11:22:54;16.27;;;10.05;;
70126;SDS011;57491;42.694;23.314;2022-09-09T11:25:26;15.95;;;9.57;;
70126;SDS011;57491;42.694;23.314;2022-09-09T11:28:07;15.85;;;9.63;;
70126;SDS011;57491;42.694;23.314;2022-09-09T11:30:59;14.83;;;9.53;;
70126;SDS011;57491;42.694;23.314;2022-09-09T11:33:52;12.27;;;9.32;;
70126;SDS011;57491;42.694;23.314;2022-09-09T11:36:42;16.33;;;9.77;;
70126;SDS011;57491;42.694;23.314;2022-09-09T11:39:26;16.95;;;10.95;;
70126;SDS011;57491;42.694;23.314;2022-09-09T11:42:15;12.20;;;9.70;;
70126;SDS011;57491;42.694;23.314;2022-09-09T11:44:50;14.70;;;10.10;;
70126;SDS011;57491;42.694;23.314;2022-09-09T11:47:24;12.40;;;8.80;;
70126;SDS011;57491;42.694;23.314;2022-09-09T11:49:55;13.50;;;9.10;;
70126;SDS011;57491;42.694;23.314;2022-09-09T11:52:38;13.65;;;9.73;;
70126;SDS011;57491;42.694;23.314;2022-09-09T11:55:08;15.07;;;9.48;;
70126;SDS011;57491;42.694;23.314;2022-09-09T11:57:37;13.88;;;9.52;;
70126;SDS011;57491;42.694;23.314;2022-09-09T12:00:27;16.92;;;9.80;;
70126;SDS011;57491;42.694;23.314;2022-09-09T12:02:59;9.85;;;8.60;;
70126;SDS011;57491;42.694;23.314;2022-09-09T12:05:35;10.27;;;9.23;;
70126;SDS011;57491;42.694;23.314;2022-09-09T12:08:04;13.45;;;9.25;;
70126;SDS011;57491;42.694;23.314;2022-09-09T12:10:34;12.77;;;9.63;;
70126;SDS011;57491;42.694;23.314;2022-09-09T12:13:09;13.27;;;9.82;;
70126;SDS011;57491;42.694;23.314;2022-09-09T12:15:46;14.68;;;10.48;;
70126;SDS011;57491;42.694;23.314;2022-09-09T12:18:24;12.45;;;9.07;;
70126;SDS011;57491;42.694;23.314;2022-09-09T12:21:05;12.82;;;9.07;;
70126;SDS011;57491;42.694;23.314;2022-09-09T12:23:40;14.43;;;9.20;;
70126;SDS011;57491;42.694;23.314;2022-09-09T12:29:10;10.18;;;9.25;;
70126;SDS011;57491;42.694;23.314;2022-09-09T12:31:44;13.52;;;9.80;;
70126;SDS011;57491;42.694;23.314;2022-09-09T12:34:24;12.63;;;9.80;;
70126;SDS011;57491;42.694;23.314;2022-09-09T12:37:02;12.70;;;10.75;;
70126;SDS011;57491;42.694;23.314;2022-09-09T12:39:33;21.73;;;11.18;;
70126;SDS011;57491;42.694;23.314;2022-09-09T12:42:14;19.17;;;10.40;;
70126;SDS011;57491;42.694;23.314;2022-09-09T12:44:50;12.93;;;10.40;;
70126;SDS011;57491;42.694;23.314;2022-09-09T12:47:18;12.43;;;10.20;;
70126;SDS011;57491;42.694;23.314;2022-09-09T12:49:52;15.93;;;9.63;;
70126;SDS011;57491;42.694;23.314;2022-09-09T12:52:24;12.40;;;10.90;;
70126;SDS011;57491;42.694;23.314;2022-09-09T12:54:57;15.02;;;10.45;;
70126;SDS011;57491;42.694;23.314;2022-09-09T12:57:29;16.50;;;10.23;;
70126;SDS011;57491;42.694;23.314;2022-09-09T13:00:06;14.95;;;9.70;;
70126;SDS011;57491;42.694;23.314;2022-09-09T13:02:45;13.60;;;10.60;;
70126;SDS011;57491;42.694;23.314;2022-09-09T13:05:16;15.00;;;9.95;;
70126;SDS011;57491;42.694;23.314;2022-09-09T13:07:45;12.35;;;9.82;;
70126;SDS011;57491;42.694;23.314;2022-09-09T13:10:14;13.75;;;9.50;;
70126;SDS011;57491;42.694;23.314;2022-09-09T13:12:48;14.55;;;7.55;;
70126;SDS011;57491;42.694;23.314;2022-09-09T13:15:17;10.00;;;6.93;;
70126;SDS011;57491;42.694;23.314;2022-09-09T13:17:54;9.48;;;6.90;;
70126;SDS011;57491;42.694;23.314;2022-09-09T13:20:24;13.45;;;7.35;;
70126;SDS011;57491;42.694;23.314;2022-09-09T13:22:52;12.45;;;6.68;;
70126;SDS011;57491;42.694;23.314;2022-09-09T13:25:22;8.45;;;6.03;;
70126;SDS011;57491;42.694;23.314;2022-09-09T13:27:58;17.17;;;7.22;;
70126;SDS011;57491;42.694;23.314;2022-09-09T13:30:28;12.43;;;7.10;;
70126;SDS011;57491;42.694;23.314;2022-09-09T13:35:50;10.07;;;6.57;;
70126;SDS011;57491;42.694;23.314;2022-09-09T13:38:21;15.23;;;7.60;;
70126;SDS011;57491;42.694;23.314;2022-09-09T13:40:52;17.77;;;7.88;;
70126;SDS011;57491;42.694;23.314;2022-09-09T13:43:24;14.65;;;8.57;;
70126;SDS011;57491;42.694;23.314;2022-09-09T13:45:53;12.30;;;8.10;;
70126;SDS011;57491;42.694;23.314;2022-09-09T13:48:23;11.88;;;7.30;;
70126;SDS011;57491;42.694;23.314;2022-09-09T13:51:00;15.73;;;9.63;;
70126;SDS011;57491;42.694;23.314;2022-09-09T13:53:30;16.38;;;11.15;;
70126;SDS011;57491;42.694;23.314;2022-09-09T13:55:58;10.10;;;5.28;;
70126;SDS011;57491;42.694;23.314;2022-09-09T13:58:26;10.32;;;5.32;;
70126;SDS011;57491;42.694;23.314;2022-09-09T14:00:54;13.40;;;5.78;;
70126;SDS011;57491;42.694;23.314;2022-09-09T14:03:22;13.45;;;6.70;;
70126;SDS011;57491;42.694;23.314;2022-09-09T14:05:49;12.70;;;8.10;;
70126;SDS011;57491;42.694;23.314;2022-09-09T14:08:22;20.77;;;8.57;;
70126;SDS011;57491;42.694;23.314;2022-09-09T14:10:52;15.10;;;7.75;;
70126;SDS011;57491;42.694;23.314;2022-09-09T14:13:20;10.68;;;7.43;;
70126;SDS011;57491;42.694;23.314;2022-09-09T14:15:48;10.95;;;6.97;;
70126;SDS011;57491;42.694;23.314;2022-09-09T14:18:16;13.45;;;7.05;;
70126;SDS011;57491;42.694;23.314;2022-09-09T14:20:44;10.18;;;6.88;;
70126;SDS011;57491;42.694;23.314;2022-09-09T14:23:11;12.13;;;8.27;;
70126;SDS011;57491;42.694;23.314;2022-09-09T14:25:41;12.30;;;9.02;;
70126;SDS011;57491;42.694;23.314;2022-09-09T14:28:10;13.60;;;9.43;;
70126;SDS011;57491;42.694;23.314;2022-09-09T14:30:39;12.68;;;9.40;;
70126;SDS011;57491;42.694;23.314;2022-09-09T14:33:07;15.75;;;10.35;;
70126;SDS011;57491;42.694;23.314;2022-09-09T14:35:36;15.82;;;9.63;;
70126;SDS011;57491;42.694;23.314;2022-09-09T14:38:04;18.17;;;9.85;;
70126;SDS011;57491;42.694;23.314;2022-09-09T14:40:31;13.13;;;9.82;;
70126;SDS011;57491;42.694;23.314;2022-09-09T14:43:00;13.48;;;9.82;;
70126;SDS011;57491;42.694;23.314;2022-09-09T14:45:28;12.85;;;9.45;;
70126;SDS011;57491;42.694;23.314;2022-09-09T14:47:55;14.45;;;9.50;;
70126;SDS011;57491;42.694;23.314;2022-09-09T14:50:22;15.80;;;9.68;;
70126;SDS011;57491;42.694;23.314;2022-09-09T14:52:49;11.32;;;8.55;;
70126;SDS011;57491;42.694;23.314;2022-09-09T14:55:17;15.05;;;9.18;;
70126;SDS011;57491;42.694;23.314;2022-09-09T14:57:44;16.73;;;11.02;;
70126;SDS011;57491;42.694;23.314;2022-09-09T15:00:13;13.65;;;9.55;;
70126;SDS011;57491;42.694;23.314;2022-09-09T15:02:41;16.23;;;10.73;;
70126;SDS011;57491;42.694;23.314;2022-09-09T15:05:08;14.50;;;10.55;;
70126;SDS011;57491;42.694;23.314;2022-09-09T15:07:36;13.82;;;9.90;;
70126;SDS011;57491;42.694;23.314;2022-09-09T15:12:31;13.40;;;9.23;;
70126;SDS011;57491;42.694;23.314;2022-09-09T15:15:01;15.02;;;8.68;;
70126;SDS011;57491;42.694;23.314;2022-09-09T15:17:30;8.27;;;7.47;;